Time;durP1;ratioP1;P1;durP2;ratioP2;P2;SDS_P1;SDS_P2;PMS_P1;PMS_P2;Temp;Humidity;BMP_temperature;BMP_pressure;BME280_temperature;BME280_humidity;BME280_pressure;Samples;Min_cycle;Max_cycle;Signal;HPM_P1;HPM_P2
2023/12/04 00:01:30;;;;;;;30.88;17.50;;;;;;;;;;5029209;28;20044;-90
2023/12/04 00:03:56;;;;;;;31.83;18.23;;;;;;;;;;5040347;28;20042;-91
2023/12/04 00:06:22;;;;;;;28.77;16.92;;;;;;;;;;5046566;28;20046;-91
2023/12/04 00:08:52;;;;;;;30.95;17.75;;;;;;;;;;5023806;28;20038;-91
2023/12/04 00:11:19;;;;;;;29.67;18.83;;;;;;;;;;5027177;28;20049;-91
2023/12/04 00:13:45;;;;;;;30.13;17.02;;;;;;;;;;5037682;28;20053;-91
2023/12/04 00:16:11;;;;;;;31.67;17.10;;;;;;;;;;5026696;28;20046;-91
2023/12/04 00:18:37;;;;;;;30.27;17.08;;;;;;;;;;5027681;28;20046;-90
2023/12/04 00:21:06;;;;;;;30.80;17.95;;;;;;;;;;5018436;28;20046;-90
2023/12/04 00:23:34;;;;;;;31.30;18.40;;;;;;;;;;4997288;28;20104;-91
2023/12/04 00:26:00;;;;;;;31.15;19.02;;;;;;;;;;5025606;28;20046;-91
2023/12/04 00:28:28;;;;;;;31.73;18.13;;;;;;;;;;5026654;28;20136;-91
2023/12/04 00:30:57;;;;;;;31.08;18.48;;;;;;;;;;5027558;28;20412;-90
2023/12/04 00:33:23;;;;;;;30.88;18.02;;;;;;;;;;5029632;28;20068;-91
2023/12/04 00:35:50;;;;;;;32.03;18.33;;;;;;;;;;5025500;28;20139;-90
2023/12/04 00:38:16;;;;;;;33.40;18.55;;;;;;;;;;5029911;28;20049;-90
2023/12/04 00:40:43;;;;;;;30.33;18.52;;;;;;;;;;5037642;28;20038;-91
2023/12/04 00:43:09;;;;;;;33.13;18.13;;;;;;;;;;4992324;28;20050;-90
2023/12/04 00:45:35;;;;;;;31.88;18.58;;;;;;;;;;5004592;28;20045;-90
2023/12/04 00:48:02;;;;;;;32.63;18.55;;;;;;;;;;5011036;28;20042;-91
2023/12/04 00:50:29;;;;;;;34.38;18.90;;;;;;;;;;5054787;28;20045;-91
2023/12/04 00:52:56;;;;;;;33.03;17.75;;;;;;;;;;5030367;28;20128;-91
2023/12/04 00:55:22;;;;;;;33.72;19.13;;;;;;;;;;5042981;28;20096;-91
2023/12/04 00:57:47;;;;;;;31.45;18.08;;;;;;;;;;5042978;28;20041;-90
2023/12/04 01:00:14;;;;;;;32.20;18.17;;;;;;;;;;5017098;28;20057;-90
2023/12/04 01:02:40;;;;;;;28.80;18.33;;;;;;;;;;4995538;28;20053;-90
2023/12/04 01:05:08;;;;;;;31.92;18.20;;;;;;;;;;5011879;28;20053;-90
2023/12/04 01:07:34;;;;;;;32.05;18.23;;;;;;;;;;4988940;28;20037;-90
2023/12/04 01:10:01;;;;;;;28.98;17.33;;;;;;;;;;4995447;28;20088;-89
2023/12/04 01:12:27;;;;;;;31.95;19.00;;;;;;;;;;5024912;28;20488;-91
2023/12/04 01:14:53;;;;;;;31.92;17.88;;;;;;;;;;5024997;28;20056;-90
2023/12/04 01:17:19;;;;;;;29.95;17.65;;;;;;;;;;5024794;28;20139;-91
2023/12/04 01:19:46;;;;;;;32.00;17.73;;;;;;;;;;5026763;28;20039;-90
2023/12/04 01:22:13;;;;;;;29.75;17.08;;;;;;;;;;5011258;28;20042;-90
2023/12/04 01:24:39;;;;;;;29.08;17.02;;;;;;;;;;4998822;28;20052;-90
2023/12/04 01:27:07;;;;;;;29.95;16.48;;;;;;;;;;5038011;28;20054;-90
2023/12/04 01:29:34;;;;;;;27.90;17.25;;;;;;;;;;5033289;28;20069;-90
2023/12/04 01:32:01;;;;;;;25.95;16.23;;;;;;;;;;4999993;28;20051;-91
2023/12/04 01:34:27;;;;;;;30.17;16.50;;;;;;;;;;5011056;28;20046;-90
2023/12/04 01:36:53;;;;;;;28.65;17.08;;;;;;;;;;4995664;28;20096;-91
2023/12/04 01:39:19;;;;;;;30.27;17.30;;;;;;;;;;5038410;28;20042;-91
2023/12/04 01:41:45;;;;;;;28.30;16.17;;;;;;;;;;5027552;28;20085;-89
2023/12/04 01:44:11;;;;;;;30.15;16.63;;;;;;;;;;5027427;28;20516;-90
2023/12/04 01:46:38;;;;;;;29.05;16.73;;;;;;;;;;5011358;28;20053;-90
2023/12/04 01:49:05;;;;;;;32.63;17.30;;;;;;;;;;5020049;28;20100;-89
2023/12/04 01:51:31;;;;;;;28.77;16.25;;;;;;;;;;5011856;28;20076;-89
2023/12/04 01:54:02;;;;;;;27.45;16.60;;;;;;;;;;4997426;28;20045;-88
2023/12/04 01:56:30;;;;;;;30.38;17.13;;;;;;;;;;5011692;28;20107;-90
2023/12/04 01:58:56;;;;;;;27.45;16.30;;;;;;;;;;4993221;28;20042;-89
2023/12/04 02:01:22;;;;;;;28.25;15.85;;;;;;;;;;5010021;28;20046;-89
2023/12/04 02:03:50;;;;;;;30.05;16.02;;;;;;;;;;5026494;28;20096;-89
2023/12/04 02:06:20;;;;;;;31.27;17.13;;;;;;;;;;4991178;28;20059;-91
2023/12/04 02:08:47;;;;;;;28.95;16.73;;;;;;;;;;5006693;28;20048;-89
2023/12/04 02:11:13;;;;;;;28.33;16.60;;;;;;;;;;5025431;28;20061;-89
2023/12/04 02:13:39;;;;;;;28.95;17.17;;;;;;;;;;5058595;28;20049;-90
2023/12/04 02:16:08;;;;;;;30.27;16.50;;;;;;;;;;5027506;28;20061;-90
2023/12/04 02:18:34;;;;;;;28.10;15.95;;;;;;;;;;5027521;28;20129;-90
2023/12/04 02:21:03;;;;;;;27.40;16.30;;;;;;;;;;4992558;28;20504;-90
2023/12/04 02:23:30;;;;;;;30.40;16.75;;;;;;;;;;5013937;28;20571;-90
2023/12/04 02:26:00;;;;;;;28.33;15.75;;;;;;;;;;5032963;28;20057;-88
2023/12/04 02:28:28;;;;;;;25.17;15.77;;;;;;;;;;5038490;28;20049;-89
2023/12/04 02:30:55;;;;;;;32.25;16.73;;;;;;;;;;4994345;28;20084;-90
2023/12/04 02:33:24;;;;;;;31.63;17.02;;;;;;;;;;5009932;28;20129;-90
2023/12/04 02:35:51;;;;;;;30.02;16.70;;;;;;;;;;4993503;28;20065;-89
2023/12/04 02:38:18;;;;;;;26.95;15.82;;;;;;;;;;4992039;28;20050;-89
2023/12/04 02:40:44;;;;;;;28.55;15.68;;;;;;;;;;5013489;28;20045;-89
2023/12/04 02:43:10;;;;;;;29.60;16.88;;;;;;;;;;4989551;28;20481;-89
2023/12/04 02:45:36;;;;;;;31.88;17.67;;;;;;;;;;5022423;28;20091;-89
2023/12/04 02:48:02;;;;;;;27.30;16.25;;;;;;;;;;5005805;28;20051;-90
2023/12/04 02:50:28;;;;;;;27.85;16.55;;;;;;;;;;5016470;28;20037;-89
2023/12/04 02:52:54;;;;;;;28.08;16.63;;;;;;;;;;5009038;28;20557;-90
2023/12/04 02:55:21;;;;;;;27.95;16.75;;;;;;;;;;5008986;28;20049;-89
2023/12/04 02:57:47;;;;;;;28.63;16.30;;;;;;;;;;5026261;28;20081;-89
2023/12/04 03:00:13;;;;;;;29.52;16.85;;;;;;;;;;5050147;28;20133;-90
2023/12/04 03:02:43;;;;;;;29.38;16.08;;;;;;;;;;5025499;28;20049;-90
2023/12/04 03:05:09;;;;;;;27.08;16.70;;;;;;;;;;5009655;28;20096;-90
2023/12/04 03:07:35;;;;;;;28.95;15.88;;;;;;;;;;5006619;28;20050;-90
2023/12/04 03:10:01;;;;;;;28.50;16.50;;;;;;;;;;5037094;28;20042;-89
2023/12/04 03:12:27;;;;;;;25.48;15.25;;;;;;;;;;5023673;28;20049;-89
2023/12/04 03:14:53;;;;;;;28.20;15.55;;;;;;;;;;5034110;28;20042;-89
2023/12/04 03:17:19;;;;;;;28.35;15.95;;;;;;;;;;5025967;28;20489;-90
2023/12/04 03:19:45;;;;;;;28.27;16.75;;;;;;;;;;5009374;28;20042;-89
2023/12/04 03:22:12;;;;;;;25.80;15.75;;;;;;;;;;5025810;28;20570;-90
2023/12/04 03:24:38;;;;;;;28.23;15.82;;;;;;;;;;5024607;28;20077;-90
2023/12/04 03:27:04;;;;;;;27.98;15.52;;;;;;;;;;5025271;28;20112;-89
2023/12/04 03:29:30;;;;;;;26.60;15.13;;;;;;;;;;5025329;28;20046;-89
2023/12/04 03:31:58;;;;;;;26.20;14.50;;;;;;;;;;5026705;28;20057;-90
2023/12/04 03:34:24;;;;;;;22.88;14.00;;;;;;;;;;5044473;28;20508;-89
2023/12/04 03:36:51;;;;;;;26.60;15.63;;;;;;;;;;5040432;28;20049;-91
2023/12/04 03:39:17;;;;;;;25.30;14.25;;;;;;;;;;5030964;28;20523;-90
2023/12/04 03:41:44;;;;;;;25.83;15.55;;;;;;;;;;5028695;28;20049;-89
2023/12/04 03:44:10;;;;;;;25.92;15.02;;;;;;;;;;5011887;28;20511;-90
2023/12/04 03:46:37;;;;;;;26.50;14.23;;;;;;;;;;4996191;28;20508;-90
2023/12/04 03:49:04;;;;;;;25.38;15.18;;;;;;;;;;5033294;28;20143;-90
2023/12/04 03:51:29;;;;;;;25.77;15.32;;;;;;;;;;5011563;28;20373;-89
2023/12/04 03:53:55;;;;;;;25.80;14.45;;;;;;;;;;5011944;28;20046;-90
2023/12/04 03:56:21;;;;;;;22.52;14.43;;;;;;;;;;5010709;28;20215;-91
2023/12/04 03:58:47;;;;;;;25.05;14.15;;;;;;;;;;5011022;28;20049;-90
2023/12/04 04:01:13;;;;;;;23.42;14.90;;;;;;;;;;5025161;28;20074;-90
2023/12/04 04:03:39;;;;;;;25.08;14.25;;;;;;;;;;5024959;28;20046;-90
2023/12/04 04:06:06;;;;;;;26.73;14.85;;;;;;;;;;5030630;28;20507;-90
2023/12/04 04:08:32;;;;;;;25.60;14.82;;;;;;;;;;5020807;28;20049;-90
2023/12/04 04:10:58;;;;;;;25.92;15.02;;;;;;;;;;5025853;28;20143;-90
2023/12/04 04:13:24;;;;;;;26.52;14.35;;;;;;;;;;5022067;28;20050;-91
2023/12/04 04:15:50;;;;;;;23.77;13.57;;;;;;;;;;4993861;28;20097;-90
2023/12/04 04:18:16;;;;;;;21.73;13.73;;;;;;;;;;5013320;28;20057;-91
2023/12/04 04:20:42;;;;;;;27.67;15.00;;;;;;;;;;5003008;28;20046;-90
2023/12/04 04:23:08;;;;;;;26.20;15.55;;;;;;;;;;5020752;28;20124;-89
2023/12/04 04:25:34;;;;;;;25.98;15.15;;;;;;;;;;5024318;28;20125;-90
2023/12/04 04:28:00;;;;;;;26.17;14.55;;;;;;;;;;5025505;28;20050;-90
2023/12/04 04:30:26;;;;;;;23.50;14.18;;;;;;;;;;5023495;28;20050;-90
2023/12/04 04:32:52;;;;;;;27.20;13.75;;;;;;;;;;5016940;28;20532;-90
2023/12/04 04:35:18;;;;;;;24.83;14.77;;;;;;;;;;4993230;28;20121;-91
2023/12/04 04:37:44;;;;;;;25.05;14.77;;;;;;;;;;4991444;28;20144;-91
2023/12/04 04:40:11;;;;;;;23.95;13.65;;;;;;;;;;5023057;28;20133;-90
2023/12/04 04:42:37;;;;;;;23.70;14.43;;;;;;;;;;5034855;28;20652;-90
2023/12/04 04:45:03;;;;;;;22.45;13.43;;;;;;;;;;5004206;28;20065;-90
2023/12/04 04:47:29;;;;;;;25.83;14.35;;;;;;;;;;5002171;28;20061;-91
2023/12/04 04:49:55;;;;;;;22.63;13.90;;;;;;;;;;5024266;28;20038;-90
2023/12/04 04:52:21;;;;;;;25.13;14.60;;;;;;;;;;5023533;28;20488;-90
2023/12/04 04:54:47;;;;;;;26.25;13.98;;;;;;;;;;5018098;28;20061;-90
2023/12/04 04:57:13;;;;;;;25.00;14.10;;;;;;;;;;4990979;28;20038;-89
2023/12/04 04:59:39;;;;;;;23.77;13.55;;;;;;;;;;5019348;28;20459;-90
2023/12/04 05:02:05;;;;;;;25.25;13.75;;;;;;;;;;5008230;28;20049;-91
2023/12/04 05:04:31;;;;;;;24.85;13.95;;;;;;;;;;5029731;28;20039;-89
2023/12/04 05:06:57;;;;;;;25.58;14.48;;;;;;;;;;5022037;28;20078;-90
2023/12/04 05:09:23;;;;;;;22.65;13.63;;;;;;;;;;5031521;28;20081;-90
2023/12/04 05:11:49;;;;;;;22.40;13.55;;;;;;;;;;5024060;28;20110;-91
2023/12/04 05:14:17;;;;;;;23.38;13.82;;;;;;;;;;5037812;28;20045;-89
2023/12/04 05:16:43;;;;;;;23.98;13.10;;;;;;;;;;5009392;28;20566;-90
2023/12/04 05:19:09;;;;;;;23.15;13.43;;;;;;;;;;5034609;28;20046;-88
2023/12/04 05:21:35;;;;;;;20.85;12.73;;;;;;;;;;5025282;28;20377;-90
2023/12/04 05:24:01;;;;;;;20.98;13.05;;;;;;;;;;5026065;28;20081;-91
2023/12/04 05:26:27;;;;;;;21.67;12.52;;;;;;;;;;5036599;28;20132;-89
2023/12/04 05:28:53;;;;;;;22.08;13.40;;;;;;;;;;5009769;28;20046;-90
2023/12/04 05:31:21;;;;;;;20.63;12.70;;;;;;;;;;5017075;28;20487;-89
2023/12/04 05:33:47;;;;;;;20.40;13.38;;;;;;;;;;5016787;28;20447;-90
2023/12/04 05:36:14;;;;;;;22.55;13.68;;;;;;;;;;5008992;28;20045;-90
2023/12/04 05:38:40;;;;;;;21.85;13.50;;;;;;;;;;5041480;28;20049;-88
2023/12/04 05:41:08;;;;;;;22.13;12.93;;;;;;;;;;4977642;28;20050;-89
2023/12/04 05:43:35;;;;;;;22.48;13.57;;;;;;;;;;5026886;28;20042;-91
2023/12/04 05:46:01;;;;;;;21.38;12.70;;;;;;;;;;5014934;28;20547;-89
2023/12/04 05:48:28;;;;;;;20.92;13.52;;;;;;;;;;5040130;28;20105;-90
2023/12/04 05:50:54;;;;;;;21.55;13.02;;;;;;;;;;5017089;28;20366;-89
2023/12/04 05:53:21;;;;;;;18.95;11.80;;;;;;;;;;4993952;28;20187;-90
2023/12/04 05:55:47;;;;;;;21.88;13.40;;;;;;;;;;4983281;28;20100;-90
2023/12/04 05:58:13;;;;;;;20.90;13.23;;;;;;;;;;5025813;28;20050;-89
2023/12/04 06:00:40;;;;;;;21.25;13.07;;;;;;;;;;5006229;28;20141;-90
2023/12/04 06:03:07;;;;;;;20.45;13.30;;;;;;;;;;5024862;28;20057;-90
2023/12/04 06:05:35;;;;;;;24.20;13.77;;;;;;;;;;4995307;28;20042;-89
2023/12/04 06:08:01;;;;;;;20.80;13.25;;;;;;;;;;5057431;28;20053;-90
2023/12/04 06:10:27;;;;;;;22.27;13.38;;;;;;;;;;5019232;28;20480;-89
2023/12/04 06:12:53;;;;;;;22.85;13.70;;;;;;;;;;5020293;28;20045;-90
2023/12/04 06:15:19;;;;;;;19.55;12.20;;;;;;;;;;4991446;28;20055;-89
2023/12/04 06:17:45;;;;;;;21.25;12.65;;;;;;;;;;5016253;28;20100;-88
2023/12/04 06:20:11;;;;;;;21.10;12.82;;;;;;;;;;5006612;28;20412;-89
2023/12/04 06:22:37;;;;;;;21.63;12.95;;;;;;;;;;4998939;28;20042;-90
2023/12/04 06:25:04;;;;;;;19.90;12.52;;;;;;;;;;5027054;28;20080;-89
2023/12/04 06:27:30;;;;;;;22.15;13.48;;;;;;;;;;5026068;28;20661;-89
2023/12/04 06:29:56;;;;;;;20.35;12.05;;;;;;;;;;5032013;28;20038;-89
2023/12/04 06:32:22;;;;;;;19.48;11.95;;;;;;;;;;5019215;28;20193;-90
2023/12/04 06:34:48;;;;;;;21.35;12.13;;;;;;;;;;5023898;28;20048;-88
2023/12/04 06:37:15;;;;;;;19.63;12.82;;;;;;;;;;5039761;28;20450;-86
2023/12/04 06:39:41;;;;;;;17.30;11.23;;;;;;;;;;5007173;28;20100;-90
2023/12/04 06:42:08;;;;;;;20.90;12.73;;;;;;;;;;4996056;28;20049;-89
2023/12/04 06:44:34;;;;;;;21.85;12.30;;;;;;;;;;5021679;28;20050;-89
2023/12/04 06:47:04;;;;;;;21.73;12.75;;;;;;;;;;5006067;28;20045;-88
2023/12/04 06:49:31;;;;;;;20.40;12.50;;;;;;;;;;5002251;28;20042;-90
2023/12/04 06:51:56;;;;;;;21.42;13.00;;;;;;;;;;4999142;28;20046;-88
2023/12/04 06:54:23;;;;;;;19.92;11.77;;;;;;;;;;5031356;28;20053;-88
2023/12/04 06:56:49;;;;;;;18.25;11.98;;;;;;;;;;5001427;28;20187;-89
2023/12/04 06:59:18;;;;;;;19.63;11.77;;;;;;;;;;4985464;28;20138;-89
2023/12/04 07:01:45;;;;;;;19.52;12.20;;;;;;;;;;5011743;28;20033;-91
2023/12/04 07:04:11;;;;;;;19.05;11.40;;;;;;;;;;5044558;28;20041;-89
2023/12/04 07:06:39;;;;;;;21.02;12.27;;;;;;;;;;5024326;28;20660;-89
2023/12/04 07:09:07;;;;;;;19.58;11.55;;;;;;;;;;5031495;28;20057;-90
2023/12/04 07:11:33;;;;;;;19.65;11.82;;;;;;;;;;5030991;28;20045;-89
2023/12/04 07:14:00;;;;;;;20.38;12.90;;;;;;;;;;5031046;28;20045;-89
2023/12/04 07:16:26;;;;;;;19.05;12.38;;;;;;;;;;5056280;28;20046;-88
2023/12/04 07:18:55;;;;;;;18.50;11.65;;;;;;;;;;5017284;28;20075;-88
2023/12/04 07:21:21;;;;;;;18.88;11.70;;;;;;;;;;5011482;28;20092;-89
2023/12/04 07:23:47;;;;;;;19.13;11.50;;;;;;;;;;5011375;28;20046;-88
2023/12/04 07:26:13;;;;;;;19.77;12.45;;;;;;;;;;5010091;28;20145;-87
2023/12/04 07:28:39;;;;;;;18.75;11.60;;;;;;;;;;5010785;28;20136;-84
2023/12/04 07:31:07;;;;;;;17.73;10.82;;;;;;;;;;5020541;28;20104;-90
2023/12/04 07:33:35;;;;;;;18.73;11.35;;;;;;;;;;5011327;28;20046;-90
2023/12/04 07:36:03;;;;;;;19.00;11.85;;;;;;;;;;5010601;28;20042;-89
2023/12/04 07:38:30;;;;;;;18.10;10.82;;;;;;;;;;5025120;28;20050;-85
2023/12/04 07:40:56;;;;;;;17.33;11.05;;;;;;;;;;5024129;28;20401;-90
2023/12/04 07:43:22;;;;;;;20.05;11.50;;;;;;;;;;5026074;28;20042;-88
2023/12/04 07:45:49;;;;;;;17.15;10.73;;;;;;;;;;5032593;28;20825;-89
2023/12/04 07:48:16;;;;;;;20.30;12.23;;;;;;;;;;5008719;28;20450;-87
2023/12/04 07:50:42;;;;;;;17.77;10.90;;;;;;;;;;5034281;28;20455;-89
2023/12/04 07:53:13;;;;;;;17.50;10.70;;;;;;;;;;5034701;28;20121;-88
2023/12/04 07:55:39;;;;;;;18.58;11.27;;;;;;;;;;5053086;28;20045;-91
2023/12/04 07:58:05;;;;;;;17.38;10.85;;;;;;;;;;5031682;28;20075;-89
2023/12/04 08:00:31;;;;;;;16.85;10.70;;;;;;;;;;5050332;28;20106;-89
2023/12/04 08:03:00;;;;;;;18.42;11.65;;;;;;;;;;5008091;28;20598;-89
2023/12/04 08:05:27;;;;;;;18.73;10.02;;;;;;;;;;5009104;28;20081;-87
2023/12/04 08:07:53;;;;;;;19.25;11.25;;;;;;;;;;5010023;28;20048;-89
2023/12/04 08:10:19;;;;;;;17.52;11.07;;;;;;;;;;5000090;28;20042;-89
2023/12/04 08:12:46;;;;;;;16.77;11.60;;;;;;;;;;5028937;28;20129;-90
2023/12/04 08:15:12;;;;;;;18.77;10.70;;;;;;;;;;5011510;28;20038;-88
2023/12/04 08:17:38;;;;;;;18.33;11.10;;;;;;;;;;5021400;28;20057;-88
2023/12/04 08:20:04;;;;;;;17.90;11.60;;;;;;;;;;5010674;28;20054;-88
2023/12/04 08:22:31;;;;;;;18.80;11.20;;;;;;;;;;5045223;28;20053;-91
2023/12/04 08:24:58;;;;;;;20.90;11.45;;;;;;;;;;5031206;28;20046;-90
2023/12/04 08:27:26;;;;;;;17.52;11.05;;;;;;;;;;5046664;28;20053;-89
2023/12/04 08:29:52;;;;;;;15.73;10.52;;;;;;;;;;5047084;28;20080;-89
2023/12/04 08:32:21;;;;;;;18.95;11.05;;;;;;;;;;5030471;28;20134;-88
2023/12/04 08:34:47;;;;;;;17.67;11.00;;;;;;;;;;5028465;28;20061;-87
2023/12/04 08:37:13;;;;;;;15.77;9.13;;;;;;;;;;5019640;28;20112;-87
2023/12/04 08:39:40;;;;;;;19.77;11.45;;;;;;;;;;5009544;28;20155;-88
2023/12/04 08:42:06;;;;;;;15.90;10.07;;;;;;;;;;5009342;28;20045;-87
2023/12/04 08:44:32;;;;;;;18.90;11.20;;;;;;;;;;5008113;28;20107;-87
2023/12/04 08:46:58;;;;;;;16.38;10.70;;;;;;;;;;5009469;28;20124;-87
2023/12/04 08:49:25;;;;;;;14.48;9.90;;;;;;;;;;5008431;28;20515;-88
2023/12/04 08:51:54;;;;;;;17.45;11.30;;;;;;;;;;4995441;28;20041;-88
2023/12/04 08:54:21;;;;;;;14.60;9.32;;;;;;;;;;5012533;28;20050;-87
2023/12/04 08:56:47;;;;;;;15.88;10.02;;;;;;;;;;5008291;28;20057;-87
2023/12/04 08:59:13;;;;;;;15.05;9.30;;;;;;;;;;5008557;28;20141;-87
2023/12/04 09:01:40;;;;;;;16.05;9.80;;;;;;;;;;5011004;28;20136;-87
2023/12/04 09:04:09;;;;;;;16.20;10.63;;;;;;;;;;5009464;28;20050;-87
2023/12/04 09:06:35;;;;;;;15.10;9.68;;;;;;;;;;5014276;28;20049;-86
2023/12/04 09:09:03;;;;;;;16.13;9.85;;;;;;;;;;5061272;28;20110;-89
2023/12/04 09:11:29;;;;;;;14.00;9.70;;;;;;;;;;5044205;28;20042;-87
2023/12/04 09:13:55;;;;;;;14.98;9.75;;;;;;;;;;5044724;28;20557;-87
2023/12/04 09:16:21;;;;;;;15.32;10.18;;;;;;;;;;5061398;28;20037;-88
2023/12/04 09:18:47;;;;;;;16.38;9.93;;;;;;;;;;5045394;28;20046;-88
2023/12/04 09:21:16;;;;;;;13.60;9.23;;;;;;;;;;5044245;28;20041;-87
2023/12/04 09:23:42;;;;;;;13.77;9.02;;;;;;;;;;5033694;28;20096;-87
2023/12/04 09:26:08;;;;;;;13.82;9.52;;;;;;;;;;5018171;28;20058;-87
2023/12/04 09:28:39;;;;;;;14.43;9.57;;;;;;;;;;5022945;28;20056;-87
2023/12/04 09:31:05;;;;;;;15.95;9.15;;;;;;;;;;5007772;28;20058;-85
2023/12/04 09:33:31;;;;;;;13.05;8.63;;;;;;;;;;5023399;28;20104;-88
2023/12/04 09:35:57;;;;;;;14.23;9.00;;;;;;;;;;5007115;28;20049;-87
2023/12/04 09:38:23;;;;;;;12.27;8.13;;;;;;;;;;5039986;28;20056;-88
2023/12/04 09:40:50;;;;;;;12.27;8.45;;;;;;;;;;5007586;28;20050;-86
2023/12/04 09:43:16;;;;;;;14.07;8.98;;;;;;;;;;5008389;28;20121;-87
2023/12/04 09:45:43;;;;;;;14.20;9.23;;;;;;;;;;5014989;28;20042;-87
2023/12/04 09:48:09;;;;;;;12.02;8.20;;;;;;;;;;5008304;28;20598;-88
2023/12/04 09:50:36;;;;;;;12.68;8.77;;;;;;;;;;5015351;28;20045;-88
2023/12/04 09:53:03;;;;;;;11.50;8.05;;;;;;;;;;5039923;28;20042;-88
2023/12/04 09:55:29;;;;;;;13.32;9.30;;;;;;;;;;5002682;28;20042;-87
2023/12/04 09:57:55;;;;;;;13.45;9.13;;;;;;;;;;4996987;28;20634;-88
2023/12/04 10:00:22;;;;;;;12.50;8.98;;;;;;;;;;5007245;28;20057;-86
2023/12/04 10:02:48;;;;;;;12.82;8.93;;;;;;;;;;5021286;28;20049;-88
2023/12/04 10:05:14;;;;;;;14.32;8.63;;;;;;;;;;5032712;28;20041;-87
2023/12/04 10:07:43;;;;;;;12.15;8.68;;;;;;;;;;5050612;28;20050;-88
2023/12/04 10:10:09;;;;;;;12.85;9.00;;;;;;;;;;4990255;28;20239;-86
2023/12/04 10:12:38;;;;;;;12.52;8.30;;;;;;;;;;5008360;28;20041;-86
2023/12/04 10:15:06;;;;;;;11.40;8.00;;;;;;;;;;5024757;28;20134;-87
2023/12/04 10:17:38;;;;;;;12.15;8.75;;;;;;;;;;5025570;28;20050;-89
2023/12/04 10:20:12;;;;;;;12.38;8.60;;;;;;;;;;5030614;28;20499;-87
2023/12/04 10:22:55;;;;;;;13.40;8.55;;;;;;;;;;4988866;28;20507;-87
2023/12/04 10:25:21;;;;;;;10.88;8.55;;;;;;;;;;5022951;28;20141;-91
2023/12/04 10:27:48;;;;;;;10.98;7.78;;;;;;;;;;5011588;28;20053;-86
2023/12/04 10:30:23;;;;;;;14.48;8.98;;;;;;;;;;5045644;28;20507;-87
2023/12/04 10:32:49;;;;;;;12.38;8.27;;;;;;;;;;5028182;28;20046;-86
2023/12/04 10:35:16;;;;;;;11.07;7.65;;;;;;;;;;5012127;28;20046;-87
2023/12/04 10:37:42;;;;;;;11.88;8.60;;;;;;;;;;5012166;28;20117;-86
2023/12/04 10:40:09;;;;;;;11.00;8.40;;;;;;;;;;5012766;28;20046;-89
2023/12/04 10:42:35;;;;;;;9.52;7.88;;;;;;;;;;5011165;28;20046;-87
2023/12/04 10:45:01;;;;;;;14.00;8.20;;;;;;;;;;5017517;28;20187;-87
2023/12/04 10:47:29;;;;;;;11.98;8.27;;;;;;;;;;5063457;28;20650;-84
2023/12/04 10:49:55;;;;;;;13.82;7.93;;;;;;;;;;5050577;28;21087;-87
2023/12/04 10:52:24;;;;;;;11.60;8.00;;;;;;;;;;5010979;28;20049;-86
2023/12/04 10:54:50;;;;;;;9.43;7.43;;;;;;;;;;5009703;28;20042;-86
2023/12/04 10:57:21;;;;;;;10.52;7.85;;;;;;;;;;5046599;28;20088;-86
2023/12/04 10:59:47;;;;;;;10.50;7.10;;;;;;;;;;5062965;28;20050;-85
2023/12/04 11:02:22;;;;;;;11.35;8.48;;;;;;;;;;5048087;28;20061;-86
2023/12/04 11:04:51;;;;;;;12.55;7.80;;;;;;;;;;5030987;28;20050;-86
2023/12/04 11:07:18;;;;;;;11.27;7.47;;;;;;;;;;5004154;28;20045;-85
2023/12/04 11:09:44;;;;;;;10.88;7.28;;;;;;;;;;5026708;28;20056;-86
2023/12/04 11:12:12;;;;;;;11.18;7.65;;;;;;;;;;5003265;28;20041;-85
2023/12/04 11:14:52;;;;;;;10.35;6.95;;;;;;;;;;5020645;28;20149;-84
2023/12/04 11:17:19;;;;;;;9.95;7.60;;;;;;;;;;5013163;28;20515;-84
2023/12/04 11:19:55;;;;;;;12.27;7.90;;;;;;;;;;5012634;28;20042;-84
2023/12/04 11:22:25;;;;;;;11.93;7.72;;;;;;;;;;5020995;28;20053;-86
2023/12/04 11:24:51;;;;;;;10.75;7.68;;;;;;;;;;5011931;28;20089;-84
2023/12/04 11:27:18;;;;;;;10.43;7.47;;;;;;;;;;5018567;28;20145;-85
2023/12/04 11:29:45;;;;;;;10.25;7.70;;;;;;;;;;5020626;28;20046;-85
2023/12/04 11:32:20;;;;;;;9.68;7.07;;;;;;;;;;4992299;28;20054;-86
2023/12/04 11:35:10;;;;;;;11.80;8.13;;;;;;;;;;5011616;28;20050;-85
2023/12/04 11:37:37;;;;;;;10.13;7.85;;;;;;;;;;5025117;28;20038;-86
2023/12/04 11:40:04;;;;;;;10.82;8.15;;;;;;;;;;5043269;28;20054;-85
2023/12/04 11:42:31;;;;;;;10.82;7.60;;;;;;;;;;5046013;28;20049;-85
2023/12/04 11:44:58;;;;;;;11.23;7.43;;;;;;;;;;5046633;28;20095;-87
2023/12/04 11:47:25;;;;;;;10.30;7.70;;;;;;;;;;5038159;28;20064;-87
2023/12/04 11:49:51;;;;;;;11.95;7.85;;;;;;;;;;5026977;28;20133;-86
2023/12/04 11:52:17;;;;;;;8.90;7.30;;;;;;;;;;5023420;28;20579;-85
2023/12/04 11:54:59;;;;;;;10.30;8.02;;;;;;;;;;5060101;28;20107;-86
2023/12/04 11:57:28;;;;;;;10.82;7.60;;;;;;;;;;5062549;28;20049;-85
2023/12/04 12:00:08;;;;;;;10.38;7.45;;;;;;;;;;5062992;28;20072;-85
2023/12/04 12:02:34;;;;;;;10.10;7.30;;;;;;;;;;5013291;28;20081;-87
2023/12/04 12:05:00;;;;;;;8.70;6.70;;;;;;;;;;5057696;28;20084;-84
2023/12/04 12:07:29;;;;;;;13.77;8.07;;;;;;;;;;5005639;28;20054;-86
2023/12/04 12:09:55;;;;;;;10.75;6.93;;;;;;;;;;5022005;28;20550;-86
2023/12/04 12:12:21;;;;;;;9.65;7.45;;;;;;;;;;5008532;28;20444;-87
2023/12/04 12:14:47;;;;;;;10.25;6.90;;;;;;;;;;5008944;28;20131;-85
2023/12/04 12:17:16;;;;;;;10.25;7.50;;;;;;;;;;5010628;28;20081;-87
2023/12/04 12:19:42;;;;;;;9.18;7.32;;;;;;;;;;5020273;28;20080;-87
2023/12/04 12:22:09;;;;;;;9.80;7.13;;;;;;;;;;5062514;28;20132;-87
2023/12/04 12:24:35;;;;;;;9.10;7.05;;;;;;;;;;5034966;28;20043;-86
2023/12/04 12:27:01;;;;;;;11.30;7.63;;;;;;;;;;4989374;28;20058;-87
2023/12/04 12:29:29;;;;;;;9.77;7.30;;;;;;;;;;5006427;28;20516;-88
2023/12/04 12:31:55;;;;;;;8.98;6.90;;;;;;;;;;5023287;28;20062;-87
2023/12/04 12:34:21;;;;;;;10.10;7.40;;;;;;;;;;5041115;28;20042;-88
2023/12/04 12:36:47;;;;;;;9.32;6.97;;;;;;;;;;5062125;28;20591;-87
2023/12/04 12:39:15;;;;;;;9.52;7.30;;;;;;;;;;5045967;28;20140;-88
2023/12/04 12:41:49;;;;;;;10.13;7.45;;;;;;;;;;5063407;28;20045;-87
2023/12/04 12:44:15;;;;;;;11.05;7.85;;;;;;;;;;5061554;28;20080;-87
2023/12/04 12:46:41;;;;;;;18.23;7.95;;;;;;;;;;5044025;28;20578;-87
2023/12/04 12:49:07;;;;;;;11.00;7.72;;;;;;;;;;5053197;28;20440;-87
2023/12/04 12:51:33;;;;;;;11.23;7.95;;;;;;;;;;5035804;28;20057;-88
2023/12/04 12:53:59;;;;;;;11.00;7.70;;;;;;;;;;5044938;28;20466;-88
2023/12/04 12:56:28;;;;;;;9.55;7.45;;;;;;;;;;5061735;28;20781;-88
2023/12/04 12:58:54;;;;;;;9.02;7.40;;;;;;;;;;5061870;28;20046;-87
2023/12/04 13:01:25;;;;;;;10.38;7.57;;;;;;;;;;5062550;28;20060;-88
2023/12/04 13:03:52;;;;;;;10.68;7.38;;;;;;;;;;5063493;28;20495;-88
2023/12/04 13:06:18;;;;;;;10.80;7.45;;;;;;;;;;5036074;28;20046;-88
2023/12/04 13:08:46;;;;;;;9.93;7.68;;;;;;;;;;5031754;28;20048;-88
2023/12/04 13:11:12;;;;;;;10.32;7.85;;;;;;;;;;5045891;28;20132;-88
2023/12/04 13:13:40;;;;;;;9.07;6.88;;;;;;;;;;5063396;28;20120;-88
2023/12/04 13:16:06;;;;;;;11.05;7.18;;;;;;;;;;5046550;28;20057;-88
2023/12/04 13:18:34;;;;;;;12.32;8.15;;;;;;;;;;5046143;28;20553;-88
2023/12/04 13:21:01;;;;;;;10.23;7.75;;;;;;;;;;5044974;28;20128;-88
2023/12/04 13:23:27;;;;;;;11.75;7.90;;;;;;;;;;5041569;28;20400;-88
2023/12/04 13:25:54;;;;;;;10.65;8.02;;;;;;;;;;5009118;28;20046;-88
2023/12/04 13:28:20;;;;;;;10.48;7.53;;;;;;;;;;5008667;28;20388;-89
2023/12/04 13:30:46;;;;;;;11.52;8.00;;;;;;;;;;5010226;28;20124;-88
2023/12/04 13:33:12;;;;;;;10.85;7.35;;;;;;;;;;5008893;28;20046;-86
2023/12/04 13:35:44;;;;;;;11.02;7.53;;;;;;;;;;5009562;28;20050;-89
2023/12/04 13:38:13;;;;;;;10.98;7.53;;;;;;;;;;5009981;28;20390;-88
2023/12/04 13:40:39;;;;;;;10.07;7.53;;;;;;;;;;5016033;28;20077;-89
2023/12/04 13:45:51;;;;;;;10.65;7.95;;;;;;;;;;5062674;28;20634;-88
2023/12/04 13:48:21;;;;;;;12.30;7.55;;;;;;;;;;5045689;28;20136;-88
2023/12/04 13:50:50;;;;;;;10.35;7.97;;;;;;;;;;5045570;28;20049;-87
2023/12/04 13:53:20;;;;;;;9.57;7.68;;;;;;;;;;5039936;28;20057;-86
2023/12/04 14:01:12;;;;;;;11.40;7.57;;;;;;;;;;5060604;28;20099;-87
2023/12/04 14:03:38;;;;;;;10.52;7.07;;;;;;;;;;5027188;28;20046;-87
2023/12/04 14:06:04;;;;;;;9.18;7.10;;;;;;;;;;5059679;28;20103;-86
2023/12/04 14:08:30;;;;;;;9.52;7.10;;;;;;;;;;5041176;28;20049;-86
2023/12/04 14:10:57;;;;;;;9.68;7.15;;;;;;;;;;5048063;28;20054;-87
2023/12/04 14:13:23;;;;;;;9.45;7.65;;;;;;;;;;5028922;28;20424;-86
2023/12/04 14:15:49;;;;;;;9.48;7.05;;;;;;;;;;5042866;28;20369;-87
2023/12/04 14:18:15;;;;;;;10.77;7.55;;;;;;;;;;5042296;28;20041;-87
2023/12/04 14:20:41;;;;;;;11.40;7.80;;;;;;;;;;5043033;28;20168;-87
2023/12/04 14:23:08;;;;;;;10.73;6.90;;;;;;;;;;5043466;28;20077;-86
2023/12/04 14:25:34;;;;;;;9.98;7.40;;;;;;;;;;5035642;28;20202;-86
2023/12/04 14:28:01;;;;;;;11.38;7.93;;;;;;;;;;5017189;28;20041;-86
2023/12/04 14:30:27;;;;;;;12.02;7.65;;;;;;;;;;5043654;28;20121;-87